Time;durP1;ratioP1;P1;durP2;ratioP2;P2;SDS_P1;SDS_P2;PMS_P1;PMS_P2;Temp;Humidity;BMP_temperature;BMP_pressure;BME280_temperature;BME280_humidity;BME280_pressure;Samples;Min_cycle;Max_cycle;Signal;HPM_P1;HPM_P2
2022/05/16 00:06:40;;;;;;;;;5.00;2.00;;;;;18.39;100.00;100894.22;6315803;22;45238;-91
2022/05/16 00:16:52;;;;;;;;;4.60;4.60;;;;;18.47;100.00;100928.47;6327502;22;44824;-90
2022/05/16 00:19:19;;;;;;;;;5.00;4.40;;;;;18.52;100.00;100930.69;6277447;22;44936;-89
2022/05/16 00:21:46;;;;;;;;;3.20;3.20;;;;;18.59;100.00;100921.03;6297828;22;45050;-91
2022/05/16 00:24:15;;;;;;;;;5.20;4.00;;;;;18.62;100.00;100913.50;6329835;22;44668;-90
2022/05/16 00:33:16;;;;;;;;;6.60;4.00;;;;;18.75;100.00;100878.16;6330867;22;44841;-91
2022/05/16 00:35:48;;;;;;;;;6.00;4.00;;;;;18.74;100.00;100898.88;6275345;22;44614;-92
2022/05/16 00:38:18;;;;;;;;;3.60;2.00;;;;;18.73;100.00;100924.09;6301904;22;44701;-92
2022/05/16 00:41:04;;;;;;;;;;;;;;;;;;;;;
2022/05/16 01:11:39;;;;;;;;;8.00;5.00;;;;;18.56;100.00;100879.09;6053331;23;44982;-93
2022/05/16 01:44:39;;;;;;;;;10.40;8.60;;;;;18.20;100.00;100919.38;5973816;23;44638;-88
2022/05/16 01:47:16;;;;;;;;;17.25;13.75;;;;;18.17;100.00;100906.19;5937128;23;44741;-86
2022/05/16 01:49:42;;;;;;;;;15.00;12.20;;;;;18.21;100.00;100906.75;5966346;23;45289;-87
2022/05/16 01:52:07;;;;;;;;;16.00;14.50;;;;;18.19;100.00;100915.00;5955625;23;44732;-87
2022/05/16 01:54:33;;;;;;;;;14.25;13.25;;;;;18.18;100.00;100923.19;5931564;23;45263;-85
2022/05/16 01:56:58;;;;;;;;;19.00;14.50;;;;;18.15;100.00;100916.28;5953658;23;45376;-85
2022/05/16 02:00:01;;;;;;;;;21.25;17.75;;;;;18.18;100.00;100907.94;5949957;23;45293;-85
2022/05/16 02:03:27;;;;;;;;;14.00;13.20;;;;;18.17;100.00;100916.13;5925317;23;45535;-86
2022/05/16 02:05:53;;;;;;;;;10.60;9.80;;;;;18.15;100.00;100913.59;6006873;23;45390;-84
2022/05/16 02:08:19;;;;;;;;;12.20;9.20;;;;;18.12;100.00;100907.66;6008508;23;45239;-83
2022/05/16 02:10:46;;;;;;;;;9.00;9.00;;;;;18.13;100.00;100914.72;6010522;23;45115;-83
2022/05/16 02:13:11;;;;;;;;;8.20;8.20;;;;;18.13;100.00;100920.09;6008409;23;44799;-85
2022/05/16 02:15:39;;;;;;;;;8.50;7.75;;;;;18.16;100.00;100917.97;6007826;23;45359;-84
2022/05/16 02:18:06;;;;;;;;;10.40;10.40;;;;;18.17;100.00;100921.50;6085602;23;44947;-85
2022/05/16 02:20:32;;;;;;;;;11.20;8.00;;;;;18.15;100.00;100916.28;6130334;23;45172;-84
2022/05/16 02:25:45;;;;;;;;;8.00;6.40;;;;;18.11;100.00;100914.88;6130231;23;45392;-83
2022/05/16 02:28:14;;;;;;;;;10.40;8.80;;;;;18.10;100.00;100901.59;6129427;23;44832;-83
2022/05/16 02:30:41;;;;;;;;;12.60;9.00;;;;;18.15;100.00;100918.13;6126377;23;46159;-85
2022/05/16 02:33:08;;;;;;;;;9.20;9.20;;;;;18.18;100.00;100918.69;6126527;23;45292;-84
2022/05/16 02:35:33;;;;;;;;;9.00;9.00;;;;;18.21;100.00;100917.53;6103182;23;44828;-86
2022/05/16 02:37:59;;;;;;;;;10.25;10.25;;;;;18.24;100.00;100914.56;6102301;23;44843;-85
2022/05/16 02:40:26;;;;;;;;;8.25;8.25;;;;;18.27;100.00;100913.38;6100830;23;46800;-85
2022/05/16 02:42:51;;;;;;;;;7.60;7.60;;;;;18.30;100.00;100913.09;6131655;23;44793;-84
2022/05/16 02:45:17;;;;;;;;;9.00;9.00;;;;;18.30;100.00;100918.47;6131236;23;45301;-84
2022/05/16 02:47:42;;;;;;;;;8.00;8.00;;;;;18.30;100.00;100924.72;6127021;23;44735;-84
2022/05/16 02:50:08;;;;;;;;;8.50;8.50;;;;;18.33;100.00;100923.56;6099330;23;45952;-85
2022/05/16 02:52:34;;;;;;;;;12.50;8.25;;;;;18.31;100.00;100920.16;6099811;23;44582;-85
2022/05/16 02:55:02;;;;;;;;;11.00;8.25;;;;;18.31;100.00;100923.69;6125200;23;44937;-83
2022/05/16 02:57:29;;;;;;;;;10.60;9.80;;;;;18.27;100.00;100916.06;6124330;23;44814;-84
2022/05/16 02:59:55;;;;;;;;;11.60;10.20;;;;;18.27;100.00;100913.38;6105144;23;45069;-84
2022/05/16 03:02:21;;;;;;;;;11.00;10.20;;;;;18.28;100.00;100915.09;6133024;23;45213;-84
2022/05/16 03:04:46;;;;;;;;;12.25;10.75;;;;;18.28;100.00;100926.72;6126621;23;45182;-86
2022/05/16 03:07:12;;;;;;;;;11.75;10.00;;;;;18.24;100.00;100928.84;6101118;23;45215;-86
2022/05/16 03:09:38;;;;;;;;;12.50;12.00;;;;;18.22;100.00;100928.13;6100533;23;45202;-85
2022/05/16 03:12:05;;;;;;;;;9.40;8.80;;;;;18.25;100.00;100927.00;6126101;23;44652;-84
2022/05/16 03:14:31;;;;;;;;;14.00;13.20;;;;;18.27;100.00;100922.31;6100206;23;45304;-85
2022/05/16 03:16:56;;;;;;;;;9.25;6.75;;;;;18.29;100.00;100925.72;6099911;23;45309;-84
2022/05/16 03:19:22;;;;;;;;;9.00;8.00;;;;;18.30;100.00;100932.78;6129024;23;45130;-84
2022/05/16 03:21:47;;;;;;;;;7.50;7.50;;;;;18.30;100.00;100935.47;6134136;23;44771;-85
2022/05/16 03:24:13;;;;;;;;;14.00;11.50;;;;;18.28;100.00;100934.78;6135415;23;44770;-83
2022/05/16 03:26:38;;;;;;;;;16.00;13.50;;;;;18.27;100.00;100945.66;6135848;23;45352;-84
2022/05/16 03:29:07;;;;;;;;;12.00;12.00;;;;;18.24;100.00;100946.81;6134359;23;45169;-84
2022/05/16 03:31:34;;;;;;;;;15.00;15.00;;;;;18.26;100.00;100957.41;6099535;23;45138;-84
2022/05/16 03:34:00;;;;;;;;;17.40;13.40;;;;;18.21;100.00;100965.94;6098180;23;44592;-85
2022/05/16 03:36:26;;;;;;;;;13.25;13.25;;;;;18.26;100.00;100970.88;6125193;23;45232;-85
2022/05/16 03:41:35;;;;;;;;;15.00;13.20;;;;;18.27;100.00;100970.72;6130170;23;44682;-86
2022/05/16 03:44:01;;;;;;;;;20.25;14.25;;;;;18.26;100.00;100974.41;6108079;23;45553;-85
2022/05/16 03:46:26;;;;;;;;;15.25;15.25;;;;;18.24;100.00;100974.56;6134244;23;45392;-85
2022/05/16 03:48:52;;;;;;;;;15.00;14.25;;;;;18.23;100.00;100989.00;6131669;23;44945;-84
2022/05/16 03:51:18;;;;;;;;;15.00;15.00;;;;;18.22;100.00;100984.59;6105750;23;44700;-85
2022/05/16 03:53:46;;;;;;;;;16.40;16.40;;;;;18.22;100.00;100997.19;6135250;23;45302;-83
2022/05/16 03:56:14;;;;;;;;;14.50;14.50;;;;;18.21;100.00;101000.88;6100755;23;45150;-85
2022/05/16 03:58:39;;;;;;;;;19.00;13.25;;;;;18.20;100.00;100994.66;6099924;23;46672;-85
2022/05/16 04:01:04;;;;;;;;;14.00;12.00;;;;;18.19;100.00;101002.88;6125746;23;45351;-85
2022/05/16 04:03:31;;;;;;;;;15.25;14.50;;;;;18.21;100.00;101014.34;6129065;23;45570;-85
2022/05/16 04:05:57;;;;;;;;;21.00;15.75;;;;;18.20;100.00;101001.88;6134777;23;44881;-84
2022/05/16 04:08:22;;;;;;;;;16.00;14.25;;;;;18.21;100.00;101012.50;6086479;23;45343;-84
2022/05/16 04:10:48;;;;;;;;;20.75;14.75;;;;;18.23;100.00;101012.38;6111651;23;44671;-83
2022/05/16 04:13:13;;;;;;;;;15.50;14.50;;;;;18.21;100.00;101011.66;6112431;23;44772;-85
2022/05/16 04:15:39;;;;;;;;;17.25;16.00;;;;;18.23;100.00;100998.91;6138427;23;44852;-84
2022/05/16 04:18:05;;;;;;;;;17.00;14.25;;;;;18.22;100.00;101011.50;6130415;23;45136;-85
2022/05/16 04:20:31;;;;;;;;;20.00;16.20;;;;;18.23;100.00;101020.44;6130898;23;45262;-85
2022/05/16 04:22:56;;;;;;;;;15.50;15.50;;;;;18.21;100.00;101022.41;6176451;22;44885;-85
2022/05/16 04:25:21;;;;;;;;;13.75;13.50;;;;;18.19;100.00;101036.00;6285364;22;44706;-86
2022/05/16 04:27:47;;;;;;;;;18.50;16.25;;;;;18.20;100.00;101044.91;6258092;22;45366;-83
2022/05/16 04:30:13;;;;;;;;;15.50;15.50;;;;;18.16;100.00;101041.66;6253778;22;44749;-85
2022/05/16 04:32:39;;;;;;;;;20.20;17.40;;;;;18.19;100.00;101057.53;6278748;22;45160;-86
2022/05/16 04:35:06;;;;;;;;;16.75;15.75;;;;;18.16;100.00;101060.47;6277544;22;45135;-85
2022/05/16 04:37:32;;;;;;;;;15.25;14.00;;;;;18.17;100.00;101067.56;6279526;22;45274;-86
2022/05/16 04:40:00;;;;;;;;;21.50;17.00;;;;;18.20;100.00;101067.28;6282914;22;44716;-86
2022/05/16 04:42:41;;;;;;;;;12.80;12.00;;;;;18.18;100.00;101071.09;6288083;22;44674;-85
2022/05/16 04:45:11;;;;;;;;;20.75;17.50;;;;;18.21;100.00;101074.34;6265593;22;44704;-85
2022/05/16 04:47:37;;;;;;;;;22.75;16.75;;;;;18.24;100.00;101075.91;6265847;22;46688;-87
2022/05/16 04:50:03;;;;;;;;;19.50;19.50;;;;;18.24;100.00;101092.91;6285758;22;44583;-87
2022/05/16 04:52:28;;;;;;;;;22.50;19.00;;;;;18.26;100.00;101105.34;6282066;22;45338;-86
2022/05/16 04:54:54;;;;;;;;;19.50;18.50;;;;;18.19;100.00;101103.25;6282500;22;44766;-86
2022/05/16 04:57:20;;;;;;;;;18.50;16.50;;;;;18.21;100.00;101124.59;6282670;22;44916;-86
2022/05/16 04:59:49;;;;;;;;;20.75;19.50;;;;;18.16;100.00;101141.16;6281020;22;45299;-87
2022/05/16 05:02:15;;;;;;;;;18.00;16.50;;;;;18.15;100.00;101144.84;6254269;22;44689;-85
2022/05/16 05:04:41;;;;;;;;;17.25;15.75;;;;;18.14;100.00;101148.53;6256286;22;44801;-86
2022/05/16 05:07:07;;;;;;;;;23.50;22.00;;;;;18.19;100.00;101159.72;6288549;22;45131;-86
2022/05/16 05:14:31;;;;;;;;;16.25;15.75;;;;;18.20;100.00;101163.25;6288096;22;44713;-85
2022/05/16 05:15:04;;;;;;;;;20.25;20.25;;;;;18.28;100.00;101138.34;6289125;22;45144;-85
2022/05/16 05:17:29;;;;;;;;;27.50;23.50;;;;;18.30;100.00;101131.81;6284728;22;45173;-86
2022/05/16 05:20:03;;;;;;;;;25.00;23.00;;;;;18.39;100.00;101138.19;6281760;22;44768;-86
2022/05/16 05:22:29;;;;;;;;;22.00;22.00;;;;;18.43;100.00;101132.38;6256422;22;44671;-88
2022/05/16 05:24:54;;;;;;;;;22.75;19.25;;;;;18.45;100.00;101127.69;6291387;22;45148;-87
2022/05/16 05:27:19;;;;;;;;;21.75;21.75;;;;;18.48;100.00;101140.84;6288895;22;45040;-88
2022/05/16 05:29:47;;;;;;;;;25.00;22.25;;;;;18.39;100.00;101147.09;6258405;22;45405;-86
2022/05/16 05:32:15;;;;;;;;;25.50;23.50;;;;;18.46;100.00;101161.66;6288219;22;44766;-87
2022/05/16 05:34:41;;;;;;;;;20.75;19.50;;;;;18.52;100.00;101149.50;6262136;22;44912;-87
2022/05/16 05:37:07;;;;;;;;;21.75;19.50;;;;;18.59;100.00;101166.75;6285919;22;46464;-87
2022/05/16 05:39:34;;;;;;;;;23.50;21.50;;;;;18.65;100.00;101171.56;6285050;22;44625;-88
2022/05/16 06:01:11;;;;;;;;;24.80;20.60;;;;;19.05;100.00;101208.22;6231486;22;44714;-89
2022/05/16 06:03:37;;;;;;;;;23.80;19.80;;;;;19.19;100.00;101217.66;6219180;22;45321;-88
2022/05/16 06:06:03;;;;;;;;;25.50;23.50;;;;;19.22;100.00;101211.97;6192345;22;44790;-90
2022/05/16 06:45:56;;;;;;;;;22.00;20.75;;;;;19.02;100.00;101256.97;6297850;22;44813;-91
2022/05/16 06:48:38;;;;;;;;;23.75;22.00;;;;;19.10;100.00;101270.56;6264710;22;44838;-91
2022/05/16 06:51:04;;;;;;;;;24.50;24.50;;;;;19.12;100.00;101283.88;6238290;22;46510;-91
2022/05/16 06:53:31;;;;;;;;;16.50;15.50;;;;;19.18;100.00;101285.97;6235716;22;44703;-89
2022/05/16 06:56:04;;;;;;;;;21.00;18.50;;;;;19.05;100.00;101286.31;6234205;22;44753;-90
2022/05/16 06:58:30;;;;;;;;;23.25;18.75;;;;;19.00;100.00;101294.81;6254770;22;44689;-90
2022/05/16 07:00:56;;;;;;;;;20.25;20.25;;;;;19.03;100.00;101300.91;6228857;22;45427;-91
2022/05/16 07:03:24;;;;;;;;;21.40;21.40;;;;;19.15;100.00;101306.00;6202105;22;44592;-91
2022/05/16 07:05:52;;;;;;;;;22.75;20.00;;;;;19.10;100.00;101316.34;6203318;22;45252;-91
2022/05/16 07:08:27;;;;;;;;;19.25;18.00;;;;;19.16;100.00;101320.31;6230686;22;44868;-90
2022/05/16 07:11:33;;;;;;;;;;;;;;;;;;;;;
2022/05/16 07:14:41;;;;;;;;;20.80;18.60;;;;;19.35;100.00;101319.44;6178986;22;72296;-90
2022/05/16 07:17:59;;;;;;;;;16.80;14.80;;;;;19.41;100.00;101327.78;6255545;22;45151;-90
2022/05/16 07:20:35;;;;;;;;;21.50;19.25;;;;;19.41;100.00;101329.63;6046174;23;44952;-90
2022/05/16 07:23:05;;;;;;;;;23.75;19.50;;;;;19.54;100.00;101324.75;6047675;23;45264;-89
2022/05/16 07:28:44;;;;;;;;;18.20;15.40;;;;;19.82;100.00;101339.16;6047067;23;44823;-88
2022/05/16 07:31:10;;;;;;;;;16.50;16.50;;;;;19.93;100.00;101344.38;6050724;23;45259;-90
2022/05/16 07:33:35;;;;;;;;;19.75;18.50;;;;;19.94;100.00;101348.75;6045017;23;45274;-89
2022/05/16 07:36:03;;;;;;;;;9.25;9.25;;;;;19.86;100.00;101354.03;6047656;23;44722;-89
2022/05/16 07:38:28;;;;;;;;;17.20;15.00;;;;;20.03;100.00;101358.66;6044869;23;44702;-88
2022/05/16 07:40:54;;;;;;;;;17.00;16.00;;;;;20.21;100.00;101347.94;6044993;23;45579;-80
2022/05/16 07:43:20;;;;;;;;;18.75;17.50;;;;;20.34;100.00;101347.56;6046880;23;45151;-89
2022/05/16 07:45:47;;;;;;;;;19.80;18.40;;;;;20.42;100.00;101341.41;6051186;23;44749;-88
2022/05/16 07:48:13;;;;;;;;;15.40;13.20;;;;;20.58;100.00;101351.56;6053506;23;44781;-88
2022/05/16 07:50:39;;;;;;;;;12.60;12.60;;;;;20.64;100.00;101354.50;6079155;23;44889;-87
2022/05/16 07:53:11;;;;;;;;;14.25;11.50;;;;;20.71;100.00;101361.00;6108161;23;45303;-87
2022/05/16 07:55:39;;;;;;;;;16.60;14.60;;;;;20.82;100.00;101356.34;6163009;22;44792;-87
2022/05/16 07:58:05;;;;;;;;;16.80;14.20;;;;;20.90;100.00;101362.69;6260754;22;45401;-88
2022/05/16 08:00:31;;;;;;;;;15.25;13.25;;;;;20.79;100.00;101368.31;6251977;22;44919;-88
2022/05/16 08:02:56;;;;;;;;;13.60;11.60;;;;;20.86;100.00;101364.00;6252380;22;45578;-88
2022/05/16 08:05:22;;;;;;;;;15.25;13.50;;;;;20.83;100.00;101364.28;6224383;22;44702;-88
2022/05/16 08:10:33;;;;;;;;;10.80;10.80;;;;;20.47;100.00;101368.84;6249429;22;45308;-88
2022/05/16 08:13:01;;;;;;;;;14.40;12.20;;;;;20.56;100.00;101370.63;6254267;22;45389;-87
2022/05/16 08:15:29;;;;;;;;;10.60;7.40;;;;;20.83;100.00;101371.56;6258057;22;45289;-88
2022/05/16 08:17:55;;;;;;;;;29.50;25.75;;;;;20.92;100.00;101376.88;6228411;22;44746;-87
2022/05/16 08:20:21;;;;;;;;;15.20;14.20;;;;;21.11;100.00;101377.72;6223830;22;44901;-87
2022/05/16 08:22:47;;;;;;;;;18.00;15.00;;;;;21.33;100.00;101369.19;6222917;22;46483;-88
2022/05/16 08:25:14;;;;;;;;;15.00;12.00;;;;;21.57;100.00;101376.63;6226022;22;45174;-88
2022/05/16 08:27:40;;;;;;;;;12.80;10.00;;;;;21.68;100.00;101381.75;6222455;22;45276;-87
2022/05/16 08:30:07;;;;;;;;;15.00;15.00;;;;;21.65;100.00;101384.75;6247425;22;44734;-87
2022/05/16 08:32:32;;;;;;;;;13.80;13.20;;;;;21.81;100.00;101384.88;6247128;22;45388;-88
2022/05/16 08:35:00;;;;;;;;;14.50;13.00;;;;;21.92;100.00;101391.88;6249597;22;44772;-82
2022/05/16 08:40:11;;;;;;;;;13.40;10.20;;;;;22.13;100.00;101391.50;6248901;22;45234;-83
2022/05/16 08:42:50;;;;;;;;;11.80;9.60;;;;;22.39;100.00;101404.13;6252865;22;45043;-84
2022/05/16 08:45:31;;;;;;;;;10.40;10.40;;;;;22.23;100.00;101404.91;6249871;22;45119;-84
2022/05/16 08:48:18;;;;;;;;;13.20;11.60;;;;;22.31;100.00;101407.66;6249091;22;44810;-85
2022/05/16 08:51:08;;;;;;;;;13.00;11.80;;;;;22.30;100.00;101397.84;6249369;22;44698;-84
2022/05/16 08:53:47;;;;;;;;;8.40;7.40;;;;;22.31;100.00;101403.09;6250760;22;45243;-83
2022/05/16 08:56:18;;;;;;;;;9.80;9.80;;;;;22.35;100.00;101405.47;6228096;22;44589;-86
2022/05/16 08:59:06;;;;;;;;;9.80;9.80;;;;;22.49;100.00;101405.69;6256061;22;44689;-82
2022/05/16 09:01:37;;;;;;;;;8.20;8.20;;;;;22.46;100.00;101410.59;6227613;22;44885;-83
2022/05/16 09:04:14;;;;;;;;;11.80;8.60;;;;;22.15;100.00;101403.03;6252677;22;44962;-84
2022/05/16 09:06:53;;;;;;;;;14.20;14.20;;;;;21.50;100.00;101407.97;6257650;22;44630;-84
2022/05/16 09:09:22;;;;;;;;;10.80;9.00;;;;;21.23;100.00;101407.06;6238304;22;45216;-87
2022/05/16 09:12:09;;;;;;;;;10.80;10.80;;;;;20.81;100.00;101419.50;6258910;22;44820;-87
2022/05/16 09:14:56;;;;;;;;;6.20;6.20;;;;;20.57;100.00;101428.16;6236772;22;46779;-86
2022/05/16 09:17:32;;;;;;;;;12.00;10.80;;;;;20.54;100.00;101434.69;6235698;22;44736;-88
2022/05/16 09:20:19;;;;;;;;;10.40;9.60;;;;;20.42;100.00;101438.59;6237251;22;44796;-88
2022/05/16 09:22:52;;;;;;;;;12.40;11.20;;;;;20.37;100.00;101446.28;6258049;22;44590;-89
2022/05/16 09:25:23;;;;;;;;;10.20;10.20;;;;;20.32;100.00;101444.03;6251431;22;45280;-89
2022/05/16 09:30:48;;;;;;;;;13.00;13.00;;;;;20.17;100.00;101453.59;6234791;22;45322;-88
2022/05/16 09:33:29;;;;;;;;;13.20;12.00;;;;;20.26;100.00;101453.56;6260096;22;44769;-88
2022/05/16 09:36:01;;;;;;;;;41.00;27.00;;;;;20.47;100.00;101457.91;6186304;22;45468;-88
2022/05/16 09:38:27;;;;;;;;;16.00;14.00;;;;;20.66;100.00;101454.25;6231367;22;45401;-88
2022/05/16 09:41:14;;;;;;;;;14.60;13.00;;;;;20.93;100.00;101448.81;6262488;22;44650;-87
2022/05/16 09:43:51;;;;;;;;;18.00;13.00;;;;;21.17;100.00;101458.16;6259515;22;45266;-89
2022/05/16 09:46:32;;;;;;;;;10.80;10.80;;;;;21.32;100.00;101451.25;6284778;22;45200;-89
2022/05/16 09:49:15;;;;;;;;;9.80;8.60;;;;;21.23;100.00;101449.47;6253637;22;45360;-90
2022/05/16 09:51:48;;;;;;;;;17.00;12.00;;;;;20.97;100.00;101465.56;6260331;22;44673;-90
2022/05/16 09:54:25;;;;;;;;;9.00;9.00;;;;;21.16;100.00;101473.53;6289166;22;44697;-89
2022/05/16 09:57:02;;;;;;;;;14.00;8.80;;;;;21.69;100.00;101475.41;6287430;22;45173;-88
2022/05/16 09:59:50;;;;;;;;;9.80;9.40;;;;;21.97;100.00;101469.84;6289999;22;44658;-88
2022/05/16 10:02:19;;;;;;;;;9.80;9.80;;;;;22.04;100.00;101469.03;6294134;22;45424;-86
2022/05/16 10:04:47;;;;;;;;;9.40;9.40;;;;;22.18;100.00;101470.34;6285717;22;45163;-88
2022/05/16 10:07:13;;;;;;;;;6.20;6.20;;;;;22.15;100.00;101469.84;6253162;22;45093;-87
2022/05/16 10:09:48;;;;;;;;;8.00;5.20;;;;;21.76;100.00;101472.94;6253570;22;44778;-88
2022/05/16 10:12:17;;;;;;;;;14.00;9.40;;;;;21.31;100.00;101476.59;6252099;22;45313;-87
2022/05/16 10:14:43;;;;;;;;;14.20;12.40;;;;;21.08;100.00;101470.78;6282345;22;44793;-88
2022/05/16 10:17:13;;;;;;;;;8.50;8.50;;;;;21.02;100.00;101485.72;6279441;22;45372;-86
2022/05/16 10:19:41;;;;;;;;;9.00;9.00;;;;;21.25;100.00;101493.41;6250052;22;44754;-88
2022/05/16 10:22:16;;;;;;;;;13.60;12.80;;;;;21.42;100.00;101487.19;6250590;22;44741;-86
2022/05/16 10:24:45;;;;;;;;;15.20;12.40;;;;;21.14;100.00;101497.19;6251442;22;45566;-86
2022/05/16 10:27:15;;;;;;;;;9.60;9.60;;;;;20.93;100.00;101488.47;6278858;22;45197;-87
2022/05/16 10:29:51;;;;;;;;;11.60;9.20;;;;;21.03;100.00;101491.97;6259179;22;44783;-86
2022/05/16 10:35:28;;;;;;;;;11.00;10.20;;;;;21.86;100.00;101497.19;6282560;22;45173;-87
2022/05/16 10:37:57;;;;;;;;;6.60;6.60;;;;;21.77;100.00;101493.56;6257026;22;45382;-86
2022/05/16 10:40:42;;;;;;;;;16.80;11.40;;;;;21.48;100.00;101493.81;6259823;22;44628;-87
2022/05/16 10:43:13;;;;;;;;;12.40;11.40;;;;;21.77;100.00;101501.66;6255880;22;44781;-86
2022/05/16 10:45:44;;;;;;;;;9.20;8.20;;;;;21.81;100.00;101490.38;6285458;22;44817;-86
2022/05/16 10:48:16;;;;;;;;;14.60;10.60;;;;;22.11;100.00;101495.50;6286946;22;44879;-87
2022/05/16 10:50:55;;;;;;;;;12.00;9.40;;;;;22.53;100.00;101492.84;6256241;22;45255;-87
2022/05/16 10:53:26;;;;;;;;;11.20;11.20;;;;;22.93;100.00;101488.66;6256849;22;44813;-87
2022/05/16 10:56:07;;;;;;;;;17.75;15.25;;;;;22.79;100.00;101487.38;6286623;22;44941;-87
2022/05/16 10:59:15;;;;;;;;;9.80;9.80;;;;;23.33;100.00;101486.00;6259389;22;46929;-86
2022/05/16 11:02:02;;;;;;;;;9.20;8.60;;;;;23.41;100.00;101478.91;6258306;22;45320;-87
2022/05/16 11:04:42;;;;;;;;;10.00;9.20;;;;;23.56;100.00;101488.06;6260307;22;44820;-87
2022/05/16 11:07:26;;;;;;;;;12.60;11.00;;;;;23.74;100.00;101491.50;6284332;22;44772;-86
2022/05/16 11:10:14;;;;;;;;;11.00;9.60;;;;;23.43;100.00;101488.56;6280495;22;45180;-87
2022/05/16 11:13:09;;;;;;;;;10.00;8.80;;;;;23.48;100.00;101480.78;6278935;22;44720;-88
2022/05/16 11:15:46;;;;;;;;;8.00;8.00;;;;;23.76;100.00;101484.03;6251411;22;44706;-87
2022/05/16 11:18:52;;;;;;;;;11.40;10.00;;;;;23.23;100.00;101477.19;6277054;22;44803;-87
2022/05/16 11:21:42;;;;;;;;;12.60;12.60;;;;;23.02;100.00;101479.53;6278303;22;45046;-87
2022/05/16 11:24:31;;;;;;;;;12.20;10.60;;;;;23.06;100.00;101479.03;6284888;22;44692;-88
2022/05/16 11:27:02;;;;;;;;;11.60;10.00;;;;;23.24;100.00;101480.75;6282364;22;45379;-86
2022/05/16 11:29:32;;;;;;;;;12.00;10.60;;;;;23.26;100.00;101482.28;6290761;22;44661;-87
2022/05/16 11:32:00;;;;;;;;;10.40;10.20;;;;;23.53;100.00;101488.41;6266413;22;46815;-86
2022/05/16 11:34:43;;;;;;;;;10.40;9.80;;;;;23.77;100.00;101474.84;6267921;22;44622;-84
2022/05/16 11:37:18;;;;;;;;;10.40;10.00;;;;;23.88;100.00;101472.81;6266219;22;44761;-86
2022/05/16 11:39:56;;;;;;;;;9.20;8.80;;;;;24.46;100.00;101468.97;6258131;22;44806;-85
2022/05/16 11:42:50;;;;;;;;;15.80;10.00;;;;;24.64;100.00;101472.28;6285138;22;45034;-85
2022/05/16 11:45:19;;;;;;;;;11.80;11.20;;;;;24.62;100.00;101477.06;6281821;22;45187;-87
2022/05/16 11:48:08;;;;;;;;;6.80;6.80;;;;;24.45;100.00;101468.13;6287821;22;45262;-89
2022/05/16 11:51:06;;;;;;;;;11.20;11.00;;;;;24.29;100.00;101460.84;6263474;22;44876;-89
2022/05/16 11:53:54;;;;;;;;;9.60;9.00;;;;;24.37;100.00;101468.16;6165567;23;45186;-88
2022/05/16 12:03:16;;;;;;;;;12.20;9.20;;;;;23.93;100.00;101467.72;6173898;23;44735;-88
2022/05/16 12:06:11;;;;;;;;;7.00;7.00;;;;;24.44;100.00;101450.13;6169264;23;45053;-89
2022/05/16 12:08:49;;;;;;;;;9.80;9.80;;;;;25.00;100.00;101450.88;6169827;23;45344;-91
2022/05/16 12:11:23;;;;;;;;;7.80;6.00;;;;;25.00;100.00;101448.16;6144351;23;44758;-90
2022/05/16 12:14:34;;;;;;;;;6.80;6.80;;;;;25.02;100.00;101451.50;6170487;23;44710;-88
2022/05/16 12:17:08;;;;;;;;;3.60;3.60;;;;;25.29;100.00;101443.91;6167387;23;45219;-89
2022/05/16 12:19:37;;;;;;;;;5.60;5.00;;;;;25.34;100.00;101439.59;6167197;23;44816;-88
2022/05/16 12:22:07;;;;;;;;;4.20;4.20;;;;;25.48;97.61;101439.81;6160988;23;45378;-87
2022/05/16 12:24:38;;;;;;;;;4.80;4.60;;;;;25.35;100.00;101437.72;6161434;23;44859;-88
2022/05/16 12:27:29;;;;;;;;;4.00;4.00;;;;;25.42;100.00;101429.66;6161114;23;45179;-88
2022/05/16 12:30:51;;;;;;;;;5.00;5.00;;;;;25.22;99.29;101434.75;6209582;22;44795;-89
2022/05/16 12:33:58;;;;;;;;;6.20;3.80;;;;;25.32;100.00;101436.19;6189444;23;44776;-89
2022/05/16 12:36:45;;;;;;;;;5.00;4.20;;;;;25.90;100.00;101431.09;6254510;22;44768;-87
2022/05/16 12:43:23;;;;;;;;;4.80;4.40;;;;;26.47;93.61;101440.53;6131401;23;45288;-88
2022/05/16 12:46:44;;;;;;;;;;;;;;;;;;;;;
2022/05/16 12:49:49;;;;;;;;;3.00;3.00;;;;;26.91;90.74;101443.16;6130642;23;69320;-87
2022/05/16 12:52:42;;;;;;;;;4.80;4.80;;;;;27.11;84.33;101446.97;6129504;23;45111;-89
2022/05/16 12:55:46;;;;;;;;;3.20;3.20;;;;;27.21;87.36;101435.72;6125561;23;45222;-89
2022/05/16 12:58:24;;;;;;;;;3.00;3.00;;;;;27.49;86.63;101440.41;6129469;23;44765;-89
2022/05/16 13:00:58;;;;;;;;;3.60;3.20;;;;;27.73;83.66;101441.88;6133928;23;44952;-88
2022/05/16 13:03:53;;;;;;;;;5.00;3.00;;;;;27.67;77.90;101447.06;6110686;23;45062;-88
2022/05/16 13:06:31;;;;;;;;;2.80;2.00;;;;;28.02;79.48;101444.41;6139570;23;44790;-88
2022/05/16 13:09:25;;;;;;;;;4.60;2.40;;;;;27.76;77.75;101441.50;6114505;23;44690;-87
2022/05/16 14:30:25;;;;;;;;;4.80;2.00;;;;;26.18;75.31;101434.03;6250860;22;45217;-88
2022/05/16 14:33:00;;;;;;;;;2.20;2.20;;;;;26.22;75.23;101435.34;6218006;22;44748;-88
2022/05/16 14:35:28;;;;;;;;;2.00;2.00;;;;;26.84;73.55;101434.91;6218350;22;45172;-87
2022/05/16 14:37:55;;;;;;;;;3.20;2.80;;;;;27.67;67.71;101433.41;6212198;22;45285;-79
2022/05/16 14:40:24;;;;;;;;;3.40;1.20;;;;;28.13;61.53;101434.78;6213721;22;46365;-86
2022/05/16 14:43:12;;;;;;;;;1.40;1.40;;;;;27.58;60.60;101442.78;6213296;22;44711;-86
2022/05/16 14:48:35;;;;;;;;;1.60;1.60;;;;;26.53;62.79;101426.97;6185829;23;44645;-87
2022/05/16 14:51:04;;;;;;;;;2.00;2.00;;;;;26.40;66.05;101434.97;6167972;23;46404;-89
2022/05/16 14:53:29;;;;;;;;;0.00;0.00;;;;;26.52;67.91;101427.19;6171258;23;44759;-88
2022/05/16 14:55:56;;;;;;;;;2.75;1.00;;;;;26.59;67.88;101426.22;6197417;23;44791;-87
2022/05/16 14:58:22;;;;;;;;;0.60;0.60;;;;;27.55;64.23;101429.53;6190723;23;44798;-87
2022/05/16 15:06:17;;;;;;;;;2.00;2.00;;;;;27.11;59.56;101429.75;6189672;23;45290;-86
2022/05/16 15:08:46;;;;;;;;;0.80;0.80;;;;;27.01;63.26;101424.59;6190305;23;44834;-88
2022/05/16 15:11:13;;;;;;;;;3.00;1.20;;;;;27.19;59.29;101421.44;6195350;23;45105;-86
2022/05/16 15:13:39;;;;;;;;;1.00;1.00;;;;;28.22;60.85;101425.38;6195788;23;44782;-87
2022/05/16 15:16:05;;;;;;;;;0.50;0.50;;;;;29.61;54.77;101412.13;6167140;23;45169;-89
2022/05/16 15:18:32;;;;;;;;;2.00;1.00;;;;;30.34;47.45;101433.91;6191383;23;45485;-89
2022/05/16 15:20:58;;;;;;;;;1.00;0.00;;;;;29.22;47.83;101429.38;6163880;23;45488;-88
2022/05/16 15:23:28;;;;;;;;;1.80;1.80;;;;;28.94;48.93;101430.34;6163013;23;44708;-89
2022/05/16 15:25:54;;;;;;;;;3.80;1.00;;;;;28.89;49.59;101438.31;6192077;23;44673;-88
2022/05/16 15:28:20;;;;;;;;;1.40;1.40;;;;;28.59;47.41;101437.78;6197654;23;44814;-87
2022/05/16 15:30:45;;;;;;;;;0.00;0.00;;;;;28.34;48.11;101442.94;6206726;22;44924;-86
2022/05/16 15:33:12;;;;;;;;;2.00;1.00;;;;;28.08;51.59;101426.34;6225872;22;44768;-87
2022/05/16 15:35:40;;;;;;;;;0.60;0.60;;;;;27.74;52.54;101430.75;6196903;22;44683;-87
2022/05/16 15:38:06;;;;;;;;;1.00;1.00;;;;;27.84;55.24;101417.59;6225541;22;44780;-88
2022/05/16 15:40:35;;;;;;;;;3.00;2.00;;;;;28.13;52.87;101429.31;6220679;22;45396;-89
2022/05/16 15:43:01;;;;;;;;;2.20;2.20;;;;;28.05;50.96;101424.88;6194650;22;45187;-87
2022/05/16 15:45:27;;;;;;;;;1.00;1.00;;;;;28.46;51.15;101418.59;6198209;22;44804;-88
2022/05/16 15:47:53;;;;;;;;;3.00;1.20;;;;;28.37;51.27;101417.91;6222916;22;45200;-88
2022/05/16 15:50:21;;;;;;;;;1.00;1.00;;;;;28.38;52.91;101416.03;6190314;22;46583;-88
2022/05/16 15:52:47;;;;;;;;;1.00;1.00;;;;;28.58;50.56;101407.94;6191131;22;44735;-87